createdAt,value
2019-03-04T00:12:06.964Z,58.80
2019-03-04T00:39:12.955Z,58.20
2019-03-04T00:52:35.712Z,58.10
2019-03-04T01:05:58.553Z,57.80
2019-03-04T01:32:23.032Z,57.20
2019-03-04T01:45:30.333Z,57.10
2019-03-04T01:58:37.628Z,56.90
2019-03-04T02:11:44.987Z,56.60
2019-03-04T02:24:52.292Z,56.40
2019-03-04T02:38:16.382Z,56.30
2019-03-04T02:51:39.185Z,56.10
2019-03-04T03:05:01.950Z,56.00
2019-03-04T03:18:24.814Z,55.80
2019-03-04T03:31:47.691Z,55.80
2019-03-04T03:45:10.532Z,55.70
2019-03-04T03:58:33.262Z,55.50
2019-03-04T04:11:56.076Z,55.40
2019-03-04T04:25:18.842Z,55.90
2019-03-04T04:37:52.541Z,55.20
2019-03-04T04:51:15.359Z,55.20
2019-03-04T05:04:38.208Z,55.70
2019-03-04T05:18:01.017Z,55.00
2019-03-04T05:31:23.859Z,54.90
2019-03-04T05:44:46.635Z,54.80
2019-03-04T05:58:09.422Z,54.80
2019-03-04T06:11:32.252Z,54.70
2019-03-04T06:24:55.033Z,54.60
2019-03-04T06:51:19.540Z,54.40
2019-03-04T07:17:32.474Z,54.40
2019-03-04T07:30:39.816Z,54.90
2019-03-04T07:43:47.111Z,55.20
2019-03-04T07:56:54.421Z,55.10
2019-03-04T08:10:01.723Z,55.00
2019-03-04T08:36:27.370Z,54.80
2019-03-04T08:49:34.724Z,54.70
2019-03-04T09:02:42.026Z,54.50
2019-03-04T09:15:49.345Z,54.60
2019-03-04T09:41:59.761Z,54.20
2019-03-04T09:55:07.162Z,54.50
2019-03-04T10:08:14.517Z,54.60
2019-03-04T10:21:21.804Z,54.50
2019-03-04T10:34:29.105Z,55.00
2019-03-04T10:47:52.850Z,55.30
2019-03-04T11:01:15.643Z,55.10
2019-03-04T11:40:46.603Z,54.40
2019-03-04T11:53:53.861Z,54.20
2019-03-04T12:07:01.167Z,54.00
2019-03-04T12:20:08.470Z,54.00
2019-03-04T12:33:15.748Z,53.80
2019-03-04T12:59:41.525Z,54.30
2019-03-04T13:12:48.855Z,54.40
2019-03-04T13:25:56.206Z,54.30
2019-03-04T13:39:03.491Z,54.30
2019-03-04T13:52:10.782Z,54.10
2019-03-04T14:05:34.864Z,54.20
2019-03-04T14:18:57.727Z,53.80
2019-03-04T14:32:20.483Z,53.70
2019-03-04T14:58:44.968Z,55.80
2019-03-04T15:11:52.403Z,56.30
2019-03-04T15:24:59.786Z,56.10
2019-03-04T15:38:07.274Z,55.60
2019-03-04T15:51:14.605Z,55.70
2019-03-04T16:04:38.262Z,55.80
2019-03-04T16:18:01.102Z,56.20
2019-03-04T16:31:23.924Z,56.40
2019-03-04T16:44:46.720Z,56.30
2019-03-04T16:58:09.538Z,57.50
2019-03-04T17:11:32.400Z,56.50
2019-03-04T17:37:56.892Z,55.40
2019-03-04T17:51:06.151Z,55.10
2019-03-04T18:04:11.691Z,54.60
2019-03-04T18:17:19.018Z,53.80
2019-03-04T18:30:26.313Z,53.60
2019-03-04T18:43:50.181Z,55.70
2019-03-04T18:57:13.035Z,56.60
2019-03-04T19:10:35.781Z,56.60
2019-03-04T19:23:58.601Z,56.70
2019-03-04T19:37:21.472Z,56.30
2019-03-04T20:16:52.530Z,57.00
2019-03-04T20:29:59.888Z,57.30
2019-03-04T20:43:07.202Z,57.10
2019-03-04T20:56:14.515Z,57.00
2019-03-04T21:09:21.843Z,57.10
2019-03-04T21:22:45.662Z,57.60
2019-03-04T21:36:08.458Z,57.00
2019-03-04T21:49:31.325Z,57.00
2019-03-04T22:02:54.134Z,56.90
2019-03-04T22:16:16.917Z,56.60
2019-03-04T22:29:39.758Z,56.20
2019-03-04T22:43:02.538Z,55.90
2019-03-04T22:56:25.359Z,55.60
2019-03-04T23:09:48.172Z,55.30
2019-03-04T23:23:11.013Z,55.10
2019-03-04T23:36:33.820Z,55.00
2019-03-04T23:49:56.631Z,54.80
